Time;durP1;ratioP1;P1;durP2;ratioP2;P2;SDS_P1;SDS_P2;PMS_P1;PMS_P2;Temp;Humidity;BMP_temperature;BMP_pressure;BME280_temperature;BME280_humidity;BME280_pressure;Samples;Min_cycle;Max_cycle;Signal;HPM_P1;HPM_P2
2023/11/06 00:01:29;;;;;;;2.70;1.10;;;;;;;-141.84;70.41;19350.50;4925097;28;20291;-62
2023/11/06 00:03:57;;;;;;;3.83;1.13;;;;;;;-141.84;70.30;19303.75;4921917;28;20296;-63
2023/11/06 00:06:27;;;;;;;3.50;1.20;;;;;;;-141.84;71.45;19313.91;4924904;28;20237;-61
2023/11/06 00:08:56;;;;;;;2.20;0.90;;;;;;;-141.84;71.91;19313.91;4927503;28;20209;-62
2023/11/06 00:11:24;;;;;;;2.13;1.00;;;;;;;-141.84;72.20;19299.69;4928175;28;20244;-62
2023/11/06 00:13:53;;;;;;;2.70;1.23;;;;;;;-141.84;72.32;19330.16;4928159;28;20292;-62
2023/11/06 00:16:22;;;;;;;3.30;1.10;;;;;;;-141.84;72.32;19320.00;4924302;28;20272;-62
2023/11/06 00:18:56;;;;;;;1.47;0.87;;;;;;;-141.84;72.61;19309.84;4928415;28;20244;-62
2023/11/06 00:21:25;;;;;;;2.00;1.17;;;;;;;-141.84;72.50;19315.94;4928242;28;20307;-61
2023/11/06 00:23:57;;;;;;;1.93;1.10;;;;;;;-141.84;71.99;19315.94;4927157;28;20643;-62
2023/11/06 00:26:26;;;;;;;1.73;1.00;;;;;;;-141.84;73.20;19275.31;4928901;28;20300;-62
2023/11/06 00:28:57;;;;;;;2.83;1.10;;;;;;;-141.84;73.22;19315.94;4928253;28;20229;-62
2023/11/06 00:31:25;;;;;;;2.50;1.03;;;;;;;-141.84;73.48;19336.25;4921390;28;20237;-61
2023/11/06 00:33:54;;;;;;;1.43;1.10;;;;;;;-141.84;73.27;19326.09;4928504;28;20316;-62
2023/11/06 00:36:24;;;;;;;1.10;1.00;;;;;;;-141.84;74.13;19313.91;4923029;28;20256;-62
2023/11/06 00:38:53;;;;;;;1.73;1.00;;;;;;;-141.84;73.71;19328.13;4928301;28;20229;-62
2023/11/06 00:41:23;;;;;;;1.67;1.13;;;;;;;-141.84;74.71;19324.06;4928679;28;20213;-62
2023/11/06 00:43:52;;;;;;;3.23;1.00;;;;;;;-141.84;74.51;19297.66;4927616;28;20241;-62
2023/11/06 00:46:20;;;;;;;1.70;1.07;;;;;;;-141.84;73.65;19334.22;4920598;28;20261;-62
2023/11/06 00:48:49;;;;;;;2.10;1.00;;;;;;;-141.84;74.65;19350.50;4928337;28;20324;-62
2023/11/06 00:51:17;;;;;;;2.13;1.23;;;;;;;-141.84;73.27;19368.78;4927916;28;20872;-63
2023/11/06 00:53:46;;;;;;;6.00;0.93;;;;;;;-141.84;73.66;19322.03;4927829;28;20218;-62
2023/11/06 00:56:14;;;;;;;3.50;1.40;;;;;;;-141.84;74.45;19297.66;4920562;28;20249;-62
2023/11/06 00:58:48;;;;;;;1.53;1.10;;;;;;;-141.84;74.82;19330.16;4927878;28;20717;-62
2023/11/06 01:01:17;;;;;;;1.47;1.00;;;;;;;-141.84;74.89;19334.22;4928122;28;20232;-62
2023/11/06 01:03:46;;;;;;;2.30;0.93;;;;;;;-141.84;74.69;19352.53;4927823;28;20233;-62
2023/11/06 01:06:14;;;;;;;1.03;0.80;;;;;;;-141.84;74.80;19338.28;4919915;28;20233;-62
2023/11/06 01:08:43;;;;;;;1.83;1.10;;;;;;;-141.84;75.54;19334.22;4927964;28;20308;-62
2023/11/06 01:11:13;;;;;;;1.17;0.80;;;;;;;-141.84;74.79;19334.22;4928069;28;20251;-62
2023/11/06 01:13:42;;;;;;;1.40;0.77;;;;;;;-141.84;75.54;19358.63;4927151;28;20244;-62
2023/11/06 01:16:12;;;;;;;3.30;1.20;;;;;;;-141.84;74.74;19360.66;4919648;28;20259;-62
2023/11/06 01:18:41;;;;;;;1.50;0.90;;;;;;;-141.84;75.40;19311.88;4927148;28;20709;-61
2023/11/06 01:21:09;;;;;;;2.03;0.80;;;;;;;-141.84;75.66;19340.31;4927130;28;20229;-62
2023/11/06 01:23:38;;;;;;;4.90;0.80;;;;;;;-141.84;75.72;19356.59;4927547;28;20221;-61
2023/11/06 01:26:07;;;;;;;2.03;0.90;;;;;;;-141.84;75.96;19348.47;4919753;28;20705;-62
2023/11/06 01:28:35;;;;;;;3.33;1.10;;;;;;;-141.84;77.09;19330.16;4913940;28;20663;-62
2023/11/06 01:31:04;;;;;;;2.07;0.80;;;;;;;-141.84;77.24;19362.69;4927324;28;20296;-61
2023/11/06 01:33:34;;;;;;;1.83;1.10;;;;;;;-141.84;78.88;19372.84;4926931;28;20312;-62
2023/11/06 01:36:05;;;;;;;1.07;0.80;;;;;;;-141.84;78.44;19362.69;4919578;28;20291;-62
2023/11/06 01:38:33;;;;;;;3.00;1.00;;;;;;;-141.84;78.64;19366.75;4928159;28;20229;-62
2023/11/06 01:41:03;;;;;;;1.03;0.83;;;;;;;-141.84;79.31;19356.59;4927249;28;20237;-62
2023/11/06 01:43:31;;;;;;;1.03;0.87;;;;;;;-141.84;78.55;19387.06;4926789;28;20237;-64
2023/11/06 01:46:00;;;;;;;2.07;0.80;;;;;;;-141.84;78.73;19354.56;4919570;28;20487;-62
2023/11/06 01:48:30;;;;;;;1.33;0.90;;;;;;;-141.84;79.04;19391.13;4927483;28;20320;-62
2023/11/06 01:51:00;;;;;;;2.63;1.10;;;;;;;-141.84;80.27;19372.84;4927193;28;20236;-62
2023/11/06 01:53:30;;;;;;;2.33;1.00;;;;;;;-141.84;81.86;19405.34;4927274;28;20297;-61
2023/11/06 01:56:00;;;;;;;2.33;1.00;;;;;;;-141.84;79.80;19376.91;4922078;28;20324;-61
2023/11/06 01:58:29;;;;;;;2.30;0.90;;;;;;;-141.84;80.55;19378.94;4927107;28;20234;-62
2023/11/06 02:00:58;;;;;;;2.80;1.10;;;;;;;-141.84;79.33;19354.56;4926853;28;20237;-61
2023/11/06 02:03:27;;;;;;;1.60;1.00;;;;;;;-141.84;80.28;19364.72;4926605;28;20237;-63
2023/11/06 02:05:56;;;;;;;2.07;1.00;;;;;;;-141.84;81.94;19383.00;4925796;28;20536;-62
2023/11/06 02:08:26;;;;;;;2.40;1.53;;;;;;;-141.84;81.71;19413.47;4925026;28;20590;-63
2023/11/06 02:10:55;;;;;;;2.40;1.00;;;;;;;-141.84;81.77;19450.06;4926488;28;20328;-62
2023/11/06 02:13:25;;;;;;;1.40;0.90;;;;;;;-141.84;80.97;19409.41;4925856;28;20236;-62
2023/11/06 02:15:54;;;;;;;4.20;1.00;;;;;;;-141.84;81.54;19407.38;4926674;28;20316;-62
2023/11/06 02:18:22;;;;;;;1.17;0.90;;;;;;;-141.84;82.28;19423.66;4921473;28;20237;-62
2023/11/06 02:20:55;;;;;;;2.27;0.90;;;;;;;-141.84;83.10;19427.72;4926694;28;20205;-63
2023/11/06 02:23:26;;;;;;;1.60;0.80;;;;;;;-141.84;81.80;19443.97;4916129;29;20224;-62
2023/11/06 02:25:54;;;;;;;1.40;0.83;;;;;;;-141.84;82.10;19439.91;4926336;28;20867;-62
2023/11/06 02:28:23;;;;;;;4.67;0.80;;;;;;;-141.84;80.12;19380.97;4921765;28;20721;-61
2023/11/06 02:30:52;;;;;;;2.13;0.80;;;;;;;-141.84;79.46;19378.94;4926054;28;20259;-61
2023/11/06 02:33:21;;;;;;;1.50;0.80;;;;;;;-141.84;79.66;19360.66;4925677;28;20233;-62
2023/11/06 02:35:50;;;;;;;2.20;0.80;;;;;;;-141.84;79.48;19378.94;4926245;28;20217;-61
2023/11/06 02:38:18;;;;;;;2.30;0.70;;;;;;;-141.84;80.24;19350.50;4919512;28;20312;-61
2023/11/06 02:40:48;;;;;;;1.70;0.80;;;;;;;-141.84;79.45;19346.44;4926179;28;20252;-63
2023/11/06 02:43:17;;;;;;;1.00;0.90;;;;;;;-141.84;79.33;19344.41;4924070;28;20237;-61
2023/11/06 02:45:45;;;;;;;1.63;1.00;;;;;;;-141.84;79.79;19364.72;4925823;28;20316;-61
2023/11/06 02:48:14;;;;;;;2.37;1.00;;;;;;;-141.84;79.86;19342.34;4917750;28;20260;-62
2023/11/06 02:50:42;;;;;;;2.93;0.83;;;;;;;-141.84;78.89;19354.56;4926286;28;20206;-63
2023/11/06 02:53:11;;;;;;;1.10;0.80;;;;;;;-141.84;80.34;19348.47;4926544;28;20870;-62
2023/11/06 02:55:40;;;;;;;5.03;1.10;;;;;;;-141.84;79.45;19342.34;4925641;28;20352;-62
2023/11/06 02:58:09;;;;;;;1.43;0.60;;;;;;;-141.84;78.99;19378.94;4917869;28;20724;-63
2023/11/06 03:00:39;;;;;;;1.43;0.70;;;;;;;-141.84;78.93;19368.78;4925177;28;20243;-63
2023/11/06 03:03:09;;;;;;;4.97;0.90;;;;;;;-141.84;79.58;19364.72;4925683;28;20229;-62
2023/11/06 03:05:38;;;;;;;3.40;1.00;;;;;;;-141.84;78.59;19336.25;4926766;28;20713;-63
2023/11/06 03:08:06;;;;;;;2.93;1.10;;;;;;;-141.84;78.65;19334.22;4918096;28;20234;-63
2023/11/06 03:10:35;;;;;;;2.03;1.00;;;;;;;-141.84;78.60;19356.59;4925965;28;20233;-62
2023/11/06 03:13:03;;;;;;;3.10;1.00;;;;;;;-141.84;79.12;19346.44;4926499;28;20264;-62
2023/11/06 03:15:33;;;;;;;1.90;1.00;;;;;;;-141.84;79.17;19346.44;4925836;28;20312;-62
2023/11/06 03:18:03;;;;;;;1.10;0.80;;;;;;;-141.84;80.04;19338.28;4917068;28;20239;-63
2023/11/06 03:20:32;;;;;;;1.97;1.13;;;;;;;-141.84;79.79;19378.94;4925733;28;20732;-61
2023/11/06 03:23:01;;;;;;;4.13;0.97;;;;;;;-141.84;81.23;19370.81;4925809;28;20255;-62
2023/11/06 03:25:29;;;;;;;0.80;0.80;;;;;;;-141.84;80.62;19374.88;4925585;28;20742;-61
2023/11/06 03:27:58;;;;;;;2.03;0.93;;;;;;;-141.84;79.54;19372.84;4922233;28;20796;-62
2023/11/06 03:30:26;;;;;;;2.73;0.93;;;;;;;-141.84;77.42;19352.53;4914268;28;20234;-61
2023/11/06 03:32:56;;;;;;;3.07;1.00;;;;;;;-141.84;77.42;19334.22;4910331;28;20235;-62
2023/11/06 03:35:25;;;;;;;1.87;0.90;;;;;;;-141.84;75.03;19332.19;4925529;28;20213;-62
2023/11/06 03:37:53;;;;;;;2.00;0.90;;;;;;;-141.84;76.70;19342.34;4925282;28;20236;-62
2023/11/06 03:40:22;;;;;;;1.00;0.70;;;;;;;-141.84;75.29;19366.75;4919175;28;20524;-62
2023/11/06 03:42:51;;;;;;;1.53;0.90;;;;;;;-141.84;75.35;19338.28;4923483;28;20321;-62
2023/11/06 03:45:19;;;;;;;0.93;0.77;;;;;;;-141.84;76.33;19317.97;4925154;28;20771;-62
2023/11/06 03:47:48;;;;;;;2.03;0.70;;;;;;;-141.84;76.06;19344.41;4925152;28;20205;-63
2023/11/06 03:50:19;;;;;;;3.23;0.93;;;;;;;-141.84;77.16;19356.59;4917234;28;20216;-62
2023/11/06 03:52:48;;;;;;;1.47;0.90;;;;;;;-141.84;76.60;19326.09;4924950;28;20240;-62
2023/11/06 03:55:16;;;;;;;4.03;1.00;;;;;;;-141.84;76.77;19338.28;4924882;28;20309;-62
2023/11/06 03:57:45;;;;;;;2.53;0.80;;;;;;;-141.84;76.23;19342.34;4925096;28;20320;-63
2023/11/06 04:00:14;;;;;;;3.63;0.77;;;;;;;-141.84;75.59;19360.66;4916503;28;20256;-63
2023/11/06 04:02:44;;;;;;;2.27;1.00;;;;;;;-141.84;76.07;19338.28;4924347;28;20213;-63
2023/11/06 04:05:12;;;;;;;2.13;0.90;;;;;;;-141.84;76.37;19332.19;4924835;28;20713;-62
2023/11/06 04:07:42;;;;;;;2.13;0.70;;;;;;;-141.84;76.75;19326.09;4924692;28;20332;-65
2023/11/06 04:10:11;;;;;;;1.17;0.87;;;;;;;-141.84;76.60;19340.31;4917581;28;20743;-64
2023/11/06 04:12:40;;;;;;;3.73;1.00;;;;;;;-141.84;76.85;19334.22;4924676;28;20233;-62
2023/11/06 04:15:10;;;;;;;1.83;0.90;;;;;;;-141.84;78.15;19340.31;4924688;28;20257;-63
2023/11/06 04:17:39;;;;;;;2.40;0.60;;;;;;;-141.84;76.17;19338.28;4924464;28;20264;-63
2023/11/06 04:20:10;;;;;;;1.17;0.70;;;;;;;-141.84;76.15;19330.16;4916331;28;20241;-64
2023/11/06 04:22:39;;;;;;;2.67;0.80;;;;;;;-141.84;76.60;19340.31;4924552;28;20725;-62
2023/11/06 04:25:09;;;;;;;2.00;0.70;;;;;;;-141.84;75.62;19317.97;4924428;28;20234;-63
2023/11/06 04:27:37;;;;;;;1.53;0.70;;;;;;;-141.84;75.54;19326.09;4925315;28;20240;-62
2023/11/06 04:30:08;;;;;;;1.57;0.87;;;;;;;-141.84;75.67;19342.34;4908495;28;20234;-62
2023/11/06 04:32:37;;;;;;;1.50;0.70;;;;;;;-141.84;75.48;19334.22;4907983;29;20277;-62
2023/11/06 04:35:06;;;;;;;2.00;0.90;;;;;;;-141.84;76.12;19297.66;4924463;28;20233;-62
2023/11/06 04:37:36;;;;;;;3.80;0.87;;;;;;;-141.84;76.67;19338.28;4924640;28;20332;-63
2023/11/06 04:40:10;;;;;;;1.60;0.93;;;;;;;-141.84;76.00;19326.09;4917280;28;20259;-62
2023/11/06 04:42:40;;;;;;;2.60;0.80;;;;;;;-141.84;75.33;19317.97;4912940;28;20498;-61
2023/11/06 04:45:09;;;;;;;2.90;0.87;;;;;;;-141.84;75.12;19332.19;4924233;28;20248;-62
2023/11/06 04:47:38;;;;;;;3.73;0.80;;;;;;;-141.84;74.82;19309.84;4924996;28;20209;-61
2023/11/06 04:50:08;;;;;;;2.93;1.10;;;;;;;-141.84;75.43;19324.06;4916767;28;20292;-62
2023/11/06 04:52:37;;;;;;;1.23;0.77;;;;;;;-141.84;74.77;19362.69;4924736;28;20344;-62
2023/11/06 04:55:06;;;;;;;3.40;0.70;;;;;;;-141.84;74.67;19317.97;4926281;28;20267;-62
2023/11/06 04:57:36;;;;;;;1.50;0.73;;;;;;;-141.84;74.40;19342.34;4927772;28;20768;-63
2023/11/06 05:00:09;;;;;;;1.73;0.80;;;;;;;-141.84;74.73;19336.25;4920141;28;20285;-62
2023/11/06 05:02:38;;;;;;;0.60;0.60;;;;;;;-141.84;75.72;19356.59;4927982;28;20201;-62
2023/11/06 05:05:09;;;;;;;0.90;0.57;;;;;;;-141.84;75.75;19283.44;4927402;28;20239;-61
2023/11/06 05:07:38;;;;;;;2.53;0.90;;;;;;;-141.84;74.70;19334.22;4927687;28;20237;-62
2023/11/06 05:10:08;;;;;;;0.87;0.70;;;;;;;-141.84;76.00;19348.47;4920290;28;20229;-62
2023/11/06 05:12:38;;;;;;;1.87;0.77;;;;;;;-141.84;75.01;19352.53;4927383;28;20275;-63
2023/11/06 05:15:09;;;;;;;1.13;0.80;;;;;;;-141.84;75.42;19350.50;4927565;28;20272;-62
2023/11/06 05:17:37;;;;;;;3.07;0.90;;;;;;;-141.84;75.42;19334.22;4927644;28;20304;-62
2023/11/06 05:20:09;;;;;;;1.60;0.70;;;;;;;-141.84;75.28;19326.09;4919646;28;20241;-62
2023/11/06 05:22:39;;;;;;;3.00;0.93;;;;;;;-141.84;75.39;19342.34;4927775;28;20344;-62
2023/11/06 05:25:09;;;;;;;3.70;0.90;;;;;;;-141.84;74.94;19348.47;4926607;28;20280;-62
2023/11/06 05:27:39;;;;;;;3.80;2.40;;;;;;;-141.84;75.72;19291.56;4927154;28;20248;-62
2023/11/06 05:30:09;;;;;;;4.43;1.90;;;;;;;-141.84;75.75;19362.69;4910889;28;20222;-61
2023/11/06 05:32:38;;;;;;;1.27;0.70;;;;;;;-141.84;76.21;19358.63;4910453;29;20345;-63
2023/11/06 05:35:08;;;;;;;1.60;0.90;;;;;;;-141.84;76.17;19311.88;4927672;28;20308;-62
2023/11/06 05:37:37;;;;;;;2.73;0.73;;;;;;;-141.84;76.63;19350.50;4927022;28;20308;-62
2023/11/06 05:40:08;;;;;;;2.20;0.90;;;;;;;-141.84;78.20;19378.94;4919515;28;20665;-62
2023/11/06 05:42:38;;;;;;;3.57;0.97;;;;;;;-141.84;78.57;19342.34;4927282;28;20584;-63
2023/11/06 05:45:09;;;;;;;1.43;0.90;;;;;;;-141.84;78.38;19336.25;4927221;28;20315;-63
2023/11/06 05:47:37;;;;;;;1.73;0.80;;;;;;;-141.84;80.09;19374.88;4927909;28;20296;-62
2023/11/06 05:50:07;;;;;;;2.63;1.00;;;;;;;-141.84;79.54;19366.75;4918938;28;20236;-62
2023/11/06 05:52:36;;;;;;;1.87;1.00;;;;;;;-141.84;79.62;19403.31;4927375;28;20515;-61
2023/11/06 05:55:05;;;;;;;1.63;1.10;;;;;;;-141.84;81.01;19399.25;4927014;28;20320;-63
2023/11/06 05:57:34;;;;;;;2.57;0.97;;;;;;;-141.84;78.75;19395.19;4927015;28;20251;-62
2023/11/06 06:00:05;;;;;;;2.93;1.00;;;;;;;-141.84;78.08;19391.13;4919856;28;20236;-62
2023/11/06 06:02:34;;;;;;;3.70;1.27;;;;;;;-141.84;77.69;19389.09;4915744;28;20206;-62
2023/11/06 06:05:04;;;;;;;2.67;1.20;;;;;;;-141.84;77.66;19378.94;4907921;29;20270;-61
2023/11/06 06:07:33;;;;;;;1.50;1.07;;;;;;;-141.84;77.74;19370.81;4918991;29;20261;-63
2023/11/06 06:10:03;;;;;;;4.13;1.37;;;;;;;-141.84;79.03;19383.00;4917909;28;20241;-63
2023/11/06 06:12:33;;;;;;;2.27;1.10;;;;;;;-141.84;79.95;19374.88;4926874;28;20233;-62
2023/11/06 06:15:03;;;;;;;2.07;0.90;;;;;;;-141.84;80.02;19389.09;4927138;28;20324;-61
2023/11/06 06:17:31;;;;;;;1.53;0.77;;;;;;;-141.84;80.37;19409.41;4927053;28;20237;-62
2023/11/06 06:20:01;;;;;;;1.33;1.00;;;;;;;-141.84;79.54;19413.47;4918760;28;20231;-62
2023/11/06 06:22:30;;;;;;;1.93;1.20;;;;;;;-141.84;80.58;19391.13;4926135;28;20328;-62
2023/11/06 06:24:59;;;;;;;2.60;1.20;;;;;;;-141.84;80.94;19435.84;4926427;28;20679;-62
2023/11/06 06:27:28;;;;;;;1.90;1.27;;;;;;;-141.84;80.31;19411.44;4926347;28;20275;-62
2023/11/06 06:29:56;;;;;;;2.03;1.00;;;;;;;-141.84;79.64;19413.47;4918868;28;20229;-61
2023/11/06 06:32:26;;;;;;;2.30;1.10;;;;;;;-141.84;79.02;19395.19;4911379;28;20617;-61
2023/11/06 06:34:55;;;;;;;4.10;1.00;;;;;;;-141.84;78.56;19383.00;4915370;29;20233;-61
2023/11/06 06:37:24;;;;;;;3.03;1.10;;;;;;;-141.84;78.36;19358.63;4922529;28;20257;-62
2023/11/06 06:39:53;;;;;;;1.90;1.00;;;;;;;-141.84;77.85;19383.00;4912387;29;20381;-61
2023/11/06 06:42:21;;;;;;;2.73;1.43;;;;;;;-141.84;77.76;19387.06;4918741;28;20312;-61
2023/11/06 06:44:49;;;;;;;3.20;1.03;;;;;;;-141.84;77.38;19391.13;4919310;28;20399;-61
2023/11/06 06:47:18;;;;;;;3.10;1.00;;;;;;;-141.84;77.39;19348.47;4911698;28;20281;-61
2023/11/06 06:49:48;;;;;;;3.13;1.00;;;;;;;-141.84;77.69;19411.44;4913672;28;20769;-62
2023/11/06 06:52:16;;;;;;;2.87;1.00;;;;;;;-141.84;77.41;19401.28;4907256;28;20272;-62
2023/11/06 06:54:45;;;;;;;2.67;1.07;;;;;;;-141.84;76.92;19374.88;4925863;28;20283;-61
2023/11/06 06:57:13;;;;;;;3.37;1.20;;;;;;;-141.84;77.88;19407.38;4911754;29;20322;-62
2023/11/06 06:59:42;;;;;;;1.30;1.03;;;;;;;-141.84;78.29;19399.25;4920754;28;20209;-61
2023/11/06 07:02:10;;;;;;;2.10;1.37;;;;;;;-141.84;78.13;19401.28;4918668;28;20259;-61
2023/11/06 07:04:40;;;;;;;2.50;1.30;;;;;;;-141.84;78.20;19378.94;4925918;28;20233;-61
2023/11/06 07:07:11;;;;;;;4.27;1.37;;;;;;;-141.84;78.34;19358.63;4922606;28;20581;-62
2023/11/06 07:09:39;;;;;;;2.13;1.17;;;;;;;-141.84;78.71;19407.38;4916541;28;20349;-61
2023/11/06 07:12:08;;;;;;;3.47;1.30;;;;;;;-141.84;78.87;19391.13;4915542;28;20731;-61
2023/11/06 07:14:37;;;;;;;2.43;1.30;;;;;;;-141.84;77.55;19401.28;4917759;28;20285;-64
2023/11/06 07:17:06;;;;;;;1.77;1.37;;;;;;;-141.84;76.72;19374.88;4923879;28;20257;-62
2023/11/06 07:19:34;;;;;;;2.20;1.10;;;;;;;-141.84;76.17;19378.94;4913206;28;20226;-61
2023/11/06 07:22:03;;;;;;;2.50;1.20;;;;;;;-141.84;76.62;19395.19;4912561;28;20689;-61
2023/11/06 07:24:34;;;;;;;2.50;1.17;;;;;;;-141.84;75.40;19385.03;4919873;28;20252;-66
2023/11/06 07:27:03;;;;;;;2.83;1.10;;;;;;;-141.84;74.35;19407.38;4918281;28;20316;-62
2023/11/06 07:29:32;;;;;;;3.13;1.20;;;;;;;-141.84;73.83;19374.88;4921522;28;20206;-66
2023/11/06 07:32:01;;;;;;;2.77;0.93;;;;;;;-141.84;73.39;19403.31;4911117;28;20717;-66
2023/11/06 07:34:30;;;;;;;2.50;1.03;;;;;;;-141.84;73.50;19383.00;4924214;28;20584;-68
2023/11/06 07:36:58;;;;;;;3.27;1.00;;;;;;;-141.84;72.83;19411.44;4924551;28;20803;-68
2023/11/06 07:39:26;;;;;;;2.03;1.00;;;;;;;-141.84;72.51;19380.97;4920829;28;20708;-67
2023/11/06 07:41:56;;;;;;;3.43;1.00;;;;;;;-141.84;72.11;19376.91;4906850;28;20779;-67
2023/11/06 07:44:25;;;;;;;2.63;1.40;;;;;;;-141.84;72.61;19391.13;4921639;28;20212;-68
2023/11/06 07:46:54;;;;;;;2.70;1.00;;;;;;;-141.84;72.67;19383.00;4924686;28;20578;-68
2023/11/06 07:49:23;;;;;;;2.60;1.20;;;;;;;-141.84;70.81;19415.50;4924215;28;20752;-67
2023/11/06 07:51:51;;;;;;;3.33;1.03;;;;;;;-141.84;71.34;19403.31;4924247;28;20312;-68
2023/11/06 07:54:20;;;;;;;2.37;1.13;;;;;;;-141.84;70.11;19431.78;4917305;28;20269;-66
2023/11/06 07:56:50;;;;;;;1.53;0.87;;;;;;;-141.84;69.54;19452.09;4924205;28;20237;-64
2023/11/06 07:59:20;;;;;;;3.73;1.23;;;;;;;-141.84;69.64;19403.31;4925006;28;20392;-64
2023/11/06 08:01:49;;;;;;;1.53;0.80;;;;;;;-141.84;69.08;19456.16;4924266;28;20233;-65
2023/11/06 08:04:17;;;;;;;2.30;0.80;;;;;;;-141.84;70.27;19389.09;4917582;28;20237;-66
2023/11/06 08:06:46;;;;;;;2.07;0.80;;;;;;;-141.84;71.52;19401.28;4924580;28;20312;-66
2023/11/06 08:09:14;;;;;;;3.00;1.10;;;;;;;-141.84;71.39;19378.94;4920653;28;20779;-65
2023/11/06 08:11:43;;;;;;;2.63;0.80;;;;;;;-141.84;71.22;19405.34;4916184;28;20238;-66
2023/11/06 08:14:12;;;;;;;5.00;1.07;;;;;;;-141.84;72.55;19411.44;4916518;28;20209;-66
2023/11/06 08:16:42;;;;;;;1.87;0.90;;;;;;;-141.84;73.60;19431.78;4924831;28;20232;-66
2023/11/06 08:19:13;;;;;;;1.95;0.90;;;;;;;-141.84;73.89;19421.63;4923615;28;20249;-65
2023/11/06 08:21:41;;;;;;;2.50;0.80;;;;;;;-141.84;74.25;19439.91;4923141;28;20221;-65
2023/11/06 08:24:10;;;;;;;2.60;1.03;;;;;;;-141.84;72.36;19450.06;4916628;28;20261;-65
2023/11/06 08:26:39;;;;;;;1.60;1.00;;;;;;;-141.84;73.15;19448.03;4925548;28;20233;-65
2023/11/06 08:29:07;;;;;;;3.10;1.00;;;;;;;-141.84;71.52;19470.38;4923707;28;20229;-65
2023/11/06 08:31:36;;;;;;;2.20;0.90;;;;;;;-141.84;70.34;19460.22;4928109;28;20300;-65
2023/11/06 08:34:06;;;;;;;1.38;0.85;;;;;;;-141.84;69.52;19439.91;4920478;28;20233;-65
2023/11/06 08:36:34;;;;;;;2.30;0.85;;;;;;;-141.84;68.74;19504.94;4927614;28;20608;-66
2023/11/06 08:39:03;;;;;;;2.87;0.97;;;;;;;-141.84;68.78;19486.66;4928313;28;20277;-65
2023/11/06 08:41:33;;;;;;;3.78;0.80;;;;;;;-141.84;68.85;19474.44;4928508;28;20264;-63
2023/11/06 08:44:01;;;;;;;1.55;0.88;;;;;;;-141.84;69.08;19513.06;4919555;28;20617;-63
2023/11/06 08:46:30;;;;;;;2.20;0.85;;;;;;;-141.84;67.34;19484.59;4926516;28;20237;-64
2023/11/06 08:48:59;;;;;;;4.53;0.90;;;;;;;-141.84;67.11;19504.94;4927027;28;20233;-65
2023/11/06 08:51:32;;;;;;;1.35;0.70;;;;;;;-141.84;66.77;19529.31;4927510;28;20284;-66
2023/11/06 08:54:00;;;;;;;1.48;0.80;;;;;;;-141.84;67.15;19490.72;4920065;28;20206;-65
2023/11/06 08:56:30;;;;;;;3.25;0.95;;;;;;;-141.84;67.14;19492.75;4928248;28;20206;-64
2023/11/06 08:58:59;;;;;;;2.45;0.88;;;;;;;-141.84;66.56;19509.00;4927657;28;20233;-68
2023/11/06 09:01:28;;;;;;;3.70;0.85;;;;;;;-141.84;66.77;19535.41;4927997;28;20327;-68
2023/11/06 09:03:56;;;;;;;2.10;0.80;;;;;;;-141.84;65.57;19496.81;4926033;28;20257;-64
2023/11/06 09:06:26;;;;;;;0.88;0.80;;;;;;;-141.84;66.48;19519.16;4924520;28;20288;-65
2023/11/06 09:08:56;;;;;;;0.93;0.65;;;;;;;-141.84;66.47;19484.59;4926724;28;20216;-63
2023/11/06 09:11:24;;;;;;;1.02;0.73;;;;;;;-141.84;67.08;19474.44;4927791;28;20264;-65
2023/11/06 09:13:53;;;;;;;1.67;0.77;;;;;;;-141.84;66.34;19454.13;4927626;28;20324;-64
2023/11/06 09:16:21;;;;;;;2.40;1.00;;;;;;;-141.84;67.42;19486.66;4920824;28;20233;-64
2023/11/06 09:18:50;;;;;;;1.50;0.80;;;;;;;-141.84;66.98;19486.66;4927571;28;20264;-63
2023/11/06 09:21:19;;;;;;;2.92;1.00;;;;;;;-141.84;66.72;19502.91;4928178;28;20706;-67
2023/11/06 09:23:47;;;;;;;2.90;0.77;;;;;;;-141.84;66.82;19472.41;4927135;28;20237;-67
2023/11/06 09:26:19;;;;;;;2.08;1.30;;;;;;;-141.84;67.06;19482.56;4919571;28;20840;-67
2023/11/06 09:28:48;;;;;;;1.87;0.70;;;;;;;-141.84;67.43;19443.97;4927216;28;20268;-67
2023/11/06 09:31:20;;;;;;;3.10;0.70;;;;;;;-141.84;67.09;19523.22;4926787;28;20620;-65
2023/11/06 09:33:49;;;;;;;4.68;1.00;;;;;;;-141.84;66.79;19472.41;4926927;28;20245;-63
2023/11/06 09:36:17;;;;;;;1.98;0.88;;;;;;;-141.84;65.33;19531.34;4919969;28;20775;-64
2023/11/06 09:38:47;;;;;;;2.38;0.90;;;;;;;-141.84;65.46;19535.41;4926482;28;20690;-64
2023/11/06 09:41:17;;;;;;;4.10;0.93;;;;;;;-141.84;65.64;19525.25;4926941;28;20210;-64
2023/11/06 09:43:46;;;;;;;4.97;1.10;;;;;;;-141.84;65.44;19525.25;4926631;28;20328;-69
2023/11/06 09:46:15;;;;;;;2.80;1.00;;;;;;;-141.84;65.67;19529.31;4918822;28;20261;-67
2023/11/06 09:48:43;;;;;;;4.07;1.10;;;;;;;-141.84;65.70;19537.44;4926657;28;20234;-64
2023/11/06 09:51:14;;;;;;;3.42;1.20;;;;;;;-141.84;68.66;19509.00;4926902;28;20233;-64
2023/11/06 09:53:45;;;;;;;2.67;1.10;;;;;;;-141.84;68.94;19509.00;4926693;28;20240;-66
2023/11/06 09:56:15;;;;;;;4.53;0.90;;;;;;;-141.84;68.89;19541.50;4919839;28;20243;-67
2023/11/06 09:58:45;;;;;;;3.95;1.27;;;;;;;-141.84;69.59;19557.78;4926199;28;20604;-66
2023/11/06 10:01:13;;;;;;;3.45;1.00;;;;;;;-141.84;68.72;19539.47;4926846;28;20323;-65
2023/11/06 10:03:42;;;;;;;3.35;1.00;;;;;;;-141.84;65.80;19557.78;4925954;28;20237;-65
2023/11/06 10:06:11;;;;;;;5.35;1.70;;;;;;;-141.84;64.90;19553.72;4918925;28;20225;-67
2023/11/06 10:08:40;;;;;;;3.28;1.17;;;;;;;-141.84;63.33;19582.16;4927057;28;20229;-66
2023/11/06 10:11:09;;;;;;;5.80;1.27;;;;;;;-141.84;61.98;19535.41;4926753;28;20275;-66
2023/11/06 10:13:53;;;;;;;5.38;1.20;;;;;;;-141.84;60.68;19598.41;4910891;28;20229;-66
2023/11/06 10:16:25;;;;;;;4.10;1.08;;;;;;;-141.84;60.38;19628.91;4902070;28;20238;-67
2023/11/06 10:19:09;;;;;;;1.73;0.90;;;;;;;-141.84;60.81;19598.41;4907338;29;20252;-67
2023/11/06 10:21:39;;;;;;;4.10;1.40;;;;;;;-141.84;59.80;19608.56;4912898;29;20233;-64
2023/11/06 10:24:09;;;;;;;4.45;1.65;;;;;;;-141.84;59.53;19630.94;4917885;28;20709;-64
2023/11/06 10:26:38;;;;;;;4.93;1.20;;;;;;;-141.84;59.17;19626.88;4926380;28;20702;-63
2023/11/06 10:29:12;;;;;;;4.50;1.23;;;;;;;-141.84;59.27;19618.75;4925184;28;20244;-63
2023/11/06 10:31:43;;;;;;;3.35;1.10;;;;;;;-141.84;58.87;19630.94;4925606;28;20240;-67
2023/11/06 10:34:26;;;;;;;3.80;1.08;;;;;;;-141.84;56.25;19659.38;4918237;28;20703;-65
2023/11/06 10:37:09;;;;;;;6.20;1.50;;;;;;;-141.84;55.47;19663.44;4926340;28;20232;-64
2023/11/06 10:39:40;;;;;;;2.55;1.20;;;;;;;-141.84;55.39;19606.53;4926758;28;20225;-64
2023/11/06 10:42:10;;;;;;;2.65;1.25;;;;;;;-141.84;55.19;19655.31;4916747;28;20229;-64
2023/11/06 10:44:41;;;;;;;4.95;1.25;;;;;;;-141.84;57.20;19620.78;4925686;28;20699;-65
2023/11/06 10:47:10;;;;;;;5.07;1.35;;;;;;;-141.84;56.15;19647.19;4926139;28;20229;-64
2023/11/06 10:49:47;;;;;;;4.20;1.30;;;;;;;-141.84;55.61;19628.91;4924757;28;20747;-65
2023/11/06 10:52:17;;;;;;;2.40;1.05;;;;;;;-141.84;55.71;19669.53;4916933;28;20240;-64
2023/11/06 10:54:51;;;;;;;4.90;1.10;;;;;;;-141.84;54.52;19673.59;4925779;28;20281;-66
2023/11/06 10:57:20;;;;;;;4.25;1.10;;;;;;;-141.84;53.75;19691.91;4926123;28;20292;-66
2023/11/06 10:59:52;;;;;;;6.40;1.27;;;;;;;-141.84;51.61;19683.78;4925570;28;20226;-65
2023/11/06 11:02:41;;;;;;;5.05;1.10;;;;;;;-141.84;51.48;19671.56;4917459;28;20304;-64
2023/11/06 11:05:12;;;;;;;2.78;0.98;;;;;;;-141.84;52.67;19695.97;4925465;28;20221;-65
2023/11/06 11:07:41;;;;;;;3.25;1.20;;;;;;;-141.84;52.21;19669.53;4923087;28;20280;-66
2023/11/06 11:10:11;;;;;;;2.58;1.40;;;;;;;-141.84;52.04;19691.91;4899541;28;20471;-68
2023/11/06 11:12:40;;;;;;;6.25;1.92;;;;;;;-141.84;51.50;19683.78;4914384;28;20268;-67
2023/11/06 11:15:12;;;;;;;8.13;1.40;;;;;;;-141.84;51.24;19706.13;4925158;28;20233;-66
2023/11/06 11:17:56;;;;;;;5.20;1.50;;;;;;;-141.84;52.08;19710.19;4925610;28;20567;-67
2023/11/06 11:20:26;;;;;;;3.75;1.13;;;;;;;-141.84;51.29;19708.16;4923035;28;20213;-66
2023/11/06 11:23:06;;;;;;;5.00;1.23;;;;;;;-141.84;50.83;19700.03;4925464;28;20239;-66
2023/11/06 11:25:56;;;;;;;3.72;1.13;;;;;;;-141.84;51.56;19726.44;4925118;28;20731;-65
2023/11/06 11:28:26;;;;;;;5.40;1.30;;;;;;;-141.84;50.88;19756.94;4912595;28;20520;-65